XNO13S EDDH-EGSS
Flight info
| Callsign | XNO13S |
|---|---|
| Flight time | 1h 9m |
| Altitude | 34000 |
| Route | WSN5C WSN N125 EKNON DCT NOGRO M40 RINIS |
| Aircraft | A321/M-SDE3FGHIRWY/LB1 |
Departure
| Time | 2026-05-05 11:09 |
|---|---|
| Airport | Hamburg Helmut Schmidt Airport (EDDH) |
Arrival
| Time | 2026-05-05 12:19 |
|---|---|
| Airport | London Stansted Airport (EGSS) |
| Time | Latitude | Longitude | Altitude | Speed | Heading |
|---|---|---|---|---|---|
| 2026-05-05 10:29 | 53.63207 | 10.00358 | 51 ft | 0 kts | 86° |
| 2026-05-05 10:53 | 53.63206 | 10.00323 | 51 ft | 4 kts | 86° |
| 2026-05-05 10:53 | 53.63205 | 10.00286 | 51 ft | 3 kts | 88° |
| 2026-05-05 10:53 | 53.63210 | 10.00252 | 48 ft | 4 kts | 155° |
| 2026-05-05 10:54 | 53.63232 | 10.00245 | 48 ft | 2 kts | 176° |
| 2026-05-05 10:54 | 53.63235 | 10.00244 | 51 ft | 0 kts | 176° |
| 2026-05-05 10:57 | 53.63232 | 10.00245 | 51 ft | 1 kts | 176° |
| 2026-05-05 10:57 | 53.63222 | 10.00246 | 51 ft | 0 kts | 176° |
| 2026-05-05 11:04 | 53.63211 | 10.00247 | 51 ft | 4 kts | 176° |
| 2026-05-05 11:04 | 53.63174 | 10.00251 | 51 ft | 6 kts | 176° |
| 2026-05-05 11:04 | 53.63130 | 10.00256 | 51 ft | 6 kts | 176° |
| 2026-05-05 11:04 | 53.63094 | 10.00261 | 51 ft | 4 kts | 176° |
| 2026-05-05 11:05 | 53.63077 | 10.00259 | 51 ft | 0 kts | 189° |
| 2026-05-05 11:06 | 53.63070 | 10.00256 | 51 ft | 3 kts | 195° |
| 2026-05-05 11:06 | 53.63040 | 10.00231 | 51 ft | 6 kts | 211° |
| 2026-05-05 11:06 | 53.63002 | 10.00190 | 51 ft | 7 kts | 213° |
| 2026-05-05 11:06 | 53.62958 | 10.00142 | 49 ft | 8 kts | 213° |
| 2026-05-05 11:07 | 53.62908 | 10.00087 | 48 ft | 9 kts | 213° |
| 2026-05-05 11:07 | 53.62866 | 10.00026 | 50 ft | 8 kts | 233° |
| 2026-05-05 11:07 | 53.62835 | 9.99933 | 47 ft | 10 kts | 243° |
| 2026-05-05 11:07 | 53.62810 | 9.99834 | 49 ft | 5 kts | 264° |
| 2026-05-05 11:08 | 53.62831 | 9.99779 | 47 ft | 6 kts | 320° |
| 2026-05-05 11:08 | 53.62848 | 9.99761 | 49 ft | 0 kts | 330° |
| 2026-05-05 11:08 | 53.62859 | 9.99750 | 49 ft | 16 kts | 330° |
| 2026-05-05 11:09 | 53.63194 | 9.99462 | 50 ft | 90 kts | 333° |
| 2026-05-05 11:09 | 53.63945 | 9.98816 | 49 ft | 150 kts | 333° |
| 2026-05-05 11:09 | 53.65003 | 9.97905 | 236 ft | 179 kts | 332° |
| 2026-05-05 11:09 | 53.66075 | 9.96975 | 1032 ft | 171 kts | 335° |
| 2026-05-05 11:10 | 53.67129 | 9.96081 | 1823 ft | 169 kts | 338° |
| 2026-05-05 11:10 | 53.68218 | 9.95156 | 2278 ft | 184 kts | 336° |
| 2026-05-05 11:10 | 53.69423 | 9.94132 | 2670 ft | 203 kts | 336° |
| 2026-05-05 11:10 | 53.70678 | 9.92881 | 3048 ft | 216 kts | 317° |
| 2026-05-05 11:11 | 53.71401 | 9.90665 | 3521 ft | 223 kts | 282° |
| 2026-05-05 11:11 | 53.71403 | 9.88878 | 3626 ft | 241 kts | 256° |
| 2026-05-05 11:11 | 53.70801 | 9.86120 | 4041 ft | 257 kts | 250° |
| 2026-05-05 11:11 | 53.70202 | 9.83242 | 4813 ft | 262 kts | 251° |
| 2026-05-05 11:12 | 53.69624 | 9.80317 | 5681 ft | 263 kts | 252° |
| 2026-05-05 11:12 | 53.69053 | 9.77373 | 6475 ft | 265 kts | 252° |
| 2026-05-05 11:12 | 53.68476 | 9.74393 | 7203 ft | 268 kts | 252° |
| 2026-05-05 11:12 | 53.67895 | 9.71398 | 7971 ft | 270 kts | 251° |
| 2026-05-05 11:13 | 53.67303 | 9.68371 | 8714 ft | 273 kts | 251° |
| 2026-05-05 11:13 | 53.66705 | 9.65318 | 9441 ft | 276 kts | 251° |
| 2026-05-05 11:13 | 53.66094 | 9.62223 | 9851 ft | 279 kts | 251° |
| 2026-05-05 11:13 | 53.65461 | 9.59106 | 9933 ft | 290 kts | 247° |
| 2026-05-05 11:14 | 53.64441 | 9.56046 | 10120 ft | 310 kts | 234° |
| 2026-05-05 11:14 | 53.63139 | 9.52995 | 10242 ft | 331 kts | 234° |
| 2026-05-05 11:14 | 53.61750 | 9.49754 | 10355 ft | 351 kts | 234° |
| 2026-05-05 11:14 | 53.60288 | 9.46349 | 10621 ft | 365 kts | 234° |
| 2026-05-05 11:15 | 53.58791 | 9.42866 | 11142 ft | 370 kts | 234° |
| 2026-05-05 11:15 | 53.57271 | 9.39336 | 11729 ft | 374 kts | 234° |
| 2026-05-05 11:15 | 53.55736 | 9.35783 | 12321 ft | 377 kts | 234° |
| 2026-05-05 11:15 | 53.54186 | 9.32199 | 12929 ft | 381 kts | 234° |
| 2026-05-05 11:16 | 53.52840 | 9.29086 | 13452 ft | 384 kts | 235° |
| 2026-05-05 11:16 | 53.51263 | 9.25436 | 14004 ft | 388 kts | 235° |
| 2026-05-05 11:16 | 53.49672 | 9.21758 | 14576 ft | 390 kts | 235° |
| 2026-05-05 11:16 | 53.48071 | 9.18057 | 15161 ft | 393 kts | 235° |
| 2026-05-05 11:17 | 53.46460 | 9.14343 | 15750 ft | 395 kts | 235° |
| 2026-05-05 11:17 | 53.44837 | 9.10607 | 16345 ft | 397 kts | 235° |
| 2026-05-05 11:17 | 53.43202 | 9.06856 | 16916 ft | 399 kts | 235° |
| 2026-05-05 11:17 | 53.41559 | 9.03091 | 17460 ft | 401 kts | 235° |
| 2026-05-05 11:18 | 53.39905 | 8.99308 | 17987 ft | 404 kts | 235° |
| 2026-05-05 11:18 | 53.38236 | 8.95501 | 18417 ft | 407 kts | 235° |
| 2026-05-05 11:18 | 53.36552 | 8.91669 | 18844 ft | 410 kts | 235° |
| 2026-05-05 11:18 | 53.34963 | 8.87714 | 19275 ft | 411 kts | 242° |
| 2026-05-05 11:19 | 53.33790 | 8.83353 | 19726 ft | 411 kts | 251° |
| 2026-05-05 11:19 | 53.32807 | 8.78849 | 20170 ft | 413 kts | 250° |
| 2026-05-05 11:19 | 53.31814 | 8.74332 | 20610 ft | 415 kts | 250° |
| 2026-05-05 11:19 | 53.30808 | 8.69798 | 21068 ft | 417 kts | 250° |
| 2026-05-05 11:20 | 53.29796 | 8.65246 | 21516 ft | 418 kts | 250° |
| 2026-05-05 11:20 | 53.28785 | 8.60675 | 21940 ft | 420 kts | 250° |
| 2026-05-05 11:20 | 53.27775 | 8.56073 | 22361 ft | 422 kts | 250° |
| 2026-05-05 11:20 | 53.26767 | 8.51457 | 22776 ft | 424 kts | 250° |
| 2026-05-05 11:21 | 53.25777 | 8.46796 | 23197 ft | 427 kts | 251° |
| 2026-05-05 11:21 | 53.24855 | 8.42075 | 23581 ft | 429 kts | 252° |
| 2026-05-05 11:21 | 53.23975 | 8.37311 | 23918 ft | 430 kts | 253° |
| 2026-05-05 11:21 | 53.23110 | 8.32523 | 24265 ft | 431 kts | 253° |
| 2026-05-05 11:22 | 53.22243 | 8.27731 | 24615 ft | 433 kts | 253° |
| 2026-05-05 11:22 | 53.21357 | 8.22924 | 24978 ft | 434 kts | 253° |
| 2026-05-05 11:22 | 53.20454 | 8.18120 | 25361 ft | 435 kts | 252° |
| 2026-05-05 11:22 | 53.19534 | 8.13314 | 25724 ft | 435 kts | 252° |
| 2026-05-05 11:23 | 53.18605 | 8.08501 | 26091 ft | 435 kts | 252° |
| 2026-05-05 11:23 | 53.17689 | 8.03709 | 26565 ft | 433 kts | 252° |
| 2026-05-05 11:23 | 53.16784 | 7.98935 | 27050 ft | 431 kts | 252° |
| 2026-05-05 11:23 | 53.15888 | 7.94183 | 27538 ft | 428 kts | 252° |
| 2026-05-05 11:24 | 53.14997 | 7.89464 | 28019 ft | 426 kts | 252° |
| 2026-05-05 11:24 | 53.14108 | 7.84765 | 28511 ft | 424 kts | 252° |
| 2026-05-05 11:24 | 53.13224 | 7.80099 | 28996 ft | 422 kts | 252° |
| 2026-05-05 11:24 | 53.12339 | 7.75457 | 29481 ft | 420 kts | 252° |
| 2026-05-05 11:25 | 53.11454 | 7.70842 | 29967 ft | 417 kts | 252° |
| 2026-05-05 11:25 | 53.10569 | 7.66253 | 30379 ft | 415 kts | 252° |
| 2026-05-05 11:25 | 53.09686 | 7.61682 | 30734 ft | 415 kts | 252° |
| 2026-05-05 11:25 | 53.08803 | 7.57117 | 31057 ft | 415 kts | 251° |
| 2026-05-05 11:26 | 53.07918 | 7.52554 | 31407 ft | 414 kts | 251° |
| 2026-05-05 11:26 | 53.07035 | 7.48003 | 31766 ft | 413 kts | 251° |
| 2026-05-05 11:26 | 53.06153 | 7.43467 | 32128 ft | 412 kts | 251° |
| 2026-05-05 11:26 | 53.05268 | 7.38944 | 32482 ft | 411 kts | 251° |
| 2026-05-05 11:27 | 53.04384 | 7.34438 | 32841 ft | 410 kts | 251° |
| 2026-05-05 11:27 | 53.03499 | 7.29940 | 33181 ft | 409 kts | 251° |
| 2026-05-05 11:27 | 53.02616 | 7.25462 | 33510 ft | 407 kts | 250° |
| 2026-05-05 11:27 | 53.01734 | 7.21005 | 33876 ft | 405 kts | 250° |
| 2026-05-05 11:28 | 53.00852 | 7.16568 | 33941 ft | 405 kts | 250° |
| 2026-05-05 11:28 | 52.99058 | 7.07708 | 33950 ft | 406 kts | 250° |
| 2026-05-05 11:29 | 52.97231 | 6.98797 | 33955 ft | 409 kts | 249° |
| 2026-05-05 11:29 | 52.95398 | 6.89862 | 33960 ft | 409 kts | 249° |
| 2026-05-05 11:30 | 52.93565 | 6.80929 | 33962 ft | 409 kts | 249° |
| 2026-05-05 11:30 | 52.91722 | 6.71996 | 33968 ft | 410 kts | 249° |
| 2026-05-05 11:31 | 52.89866 | 6.63070 | 33975 ft | 410 kts | 249° |
| 2026-05-05 11:31 | 52.88002 | 6.54149 | 33961 ft | 410 kts | 249° |
| 2026-05-05 11:32 | 52.86127 | 6.45224 | 33943 ft | 412 kts | 249° |
| 2026-05-05 11:32 | 52.84233 | 6.36268 | 33943 ft | 413 kts | 249° |
| 2026-05-05 11:33 | 52.82342 | 6.27306 | 33941 ft | 413 kts | 249° |
| 2026-05-05 11:33 | 52.80445 | 6.18340 | 33962 ft | 413 kts | 249° |
| 2026-05-05 11:34 | 52.78530 | 6.09390 | 33959 ft | 413 kts | 249° |
| 2026-05-05 11:34 | 52.76563 | 6.00466 | 33986 ft | 414 kts | 246° |
| 2026-05-05 11:35 | 52.74295 | 5.91733 | 33949 ft | 415 kts | 244° |
| 2026-05-05 11:35 | 52.71893 | 5.83073 | 33949 ft | 416 kts | 244° |
| 2026-05-05 11:36 | 52.69508 | 5.74380 | 33961 ft | 416 kts | 244° |
| 2026-05-05 11:36 | 52.67164 | 5.65651 | 33964 ft | 417 kts | 245° |
| 2026-05-05 11:37 | 52.64824 | 5.56922 | 33964 ft | 417 kts | 244° |
| 2026-05-05 11:37 | 52.62469 | 5.48205 | 33966 ft | 417 kts | 244° |
| 2026-05-05 11:38 | 52.60096 | 5.39485 | 33953 ft | 418 kts | 244° |
| 2026-05-05 11:38 | 52.57710 | 5.30758 | 33956 ft | 419 kts | 244° |
| 2026-05-05 11:39 | 52.55311 | 5.22022 | 33971 ft | 419 kts | 244° |
| 2026-05-05 11:39 | 52.52910 | 5.13290 | 33971 ft | 419 kts | 244° |
| 2026-05-05 11:40 | 52.50506 | 5.04570 | 33976 ft | 419 kts | 244° |
| 2026-05-05 11:40 | 52.48101 | 4.95862 | 33966 ft | 419 kts | 244° |
| 2026-05-05 11:41 | 52.45676 | 4.87149 | 33950 ft | 421 kts | 244° |
| 2026-05-05 11:41 | 52.43235 | 4.78414 | 33951 ft | 422 kts | 244° |
| 2026-05-05 11:42 | 52.40787 | 4.69675 | 33943 ft | 422 kts | 244° |
| 2026-05-05 11:42 | 52.38327 | 4.60936 | 33973 ft | 423 kts | 244° |
| 2026-05-05 11:43 | 52.35862 | 4.52183 | 33976 ft | 423 kts | 244° |
| 2026-05-05 11:43 | 52.33393 | 4.43438 | 33974 ft | 423 kts | 244° |
| 2026-05-05 11:44 | 52.30910 | 4.34711 | 33982 ft | 423 kts | 244° |
| 2026-05-05 11:44 | 52.28410 | 4.26008 | 33975 ft | 423 kts | 244° |
| 2026-05-05 11:45 | 52.25918 | 4.17313 | 33976 ft | 423 kts | 244° |
| 2026-05-05 11:45 | 52.23429 | 4.08628 | 33979 ft | 422 kts | 244° |
| 2026-05-05 11:46 | 52.20934 | 3.99955 | 33948 ft | 422 kts | 243° |
| 2026-05-05 11:46 | 52.18423 | 3.91314 | 33976 ft | 422 kts | 243° |
| 2026-05-05 11:47 | 52.15900 | 3.82666 | 33958 ft | 423 kts | 243° |
| 2026-05-05 11:47 | 52.13369 | 3.73998 | 33958 ft | 424 kts | 243° |
| 2026-05-05 11:48 | 52.09561 | 3.60990 | 33982 ft | 425 kts | 243° |
| 2026-05-05 11:48 | 52.07192 | 3.52934 | 33982 ft | 425 kts | 243° |
| 2026-05-05 11:49 | 52.04625 | 3.44282 | 33984 ft | 425 kts | 243° |
| 2026-05-05 11:49 | 52.02052 | 3.35631 | 33968 ft | 426 kts | 243° |
| 2026-05-05 11:50 | 51.99470 | 3.26957 | 33959 ft | 427 kts | 243° |
| 2026-05-05 11:50 | 51.97040 | 3.18171 | 33967 ft | 428 kts | 251° |
| 2026-05-05 11:51 | 51.96001 | 3.08645 | 33781 ft | 431 kts | 262° |
| 2026-05-05 11:51 | 51.95688 | 3.03805 | 33496 ft | 432 kts | 262° |
| 2026-05-05 11:51 | 51.95373 | 2.98967 | 33220 ft | 432 kts | 262° |
| 2026-05-05 11:52 | 51.95163 | 2.95753 | 33037 ft | 433 kts | 261° |
| 2026-05-05 11:52 | 51.94842 | 2.90896 | 32765 ft | 434 kts | 262° |
| 2026-05-05 11:52 | 51.94517 | 2.86016 | 31923 ft | 437 kts | 261° |
| 2026-05-05 11:52 | 51.94189 | 2.81108 | 31141 ft | 439 kts | 261° |
| 2026-05-05 11:53 | 51.93859 | 2.76163 | 30270 ft | 443 kts | 261° |
| 2026-05-05 11:53 | 51.93522 | 2.71170 | 29275 ft | 448 kts | 261° |
| 2026-05-05 11:53 | 51.93179 | 2.66143 | 28337 ft | 450 kts | 261° |
| 2026-05-05 11:53 | 51.92833 | 2.61078 | 27312 ft | 454 kts | 262° |
| 2026-05-05 11:54 | 51.92482 | 2.55962 | 26222 ft | 460 kts | 262° |
| 2026-05-05 11:54 | 51.92127 | 2.50792 | 25174 ft | 464 kts | 262° |
| 2026-05-05 11:54 | 51.91766 | 2.45584 | 24151 ft | 467 kts | 262° |
| 2026-05-05 11:54 | 51.91399 | 2.40339 | 23200 ft | 468 kts | 262° |
| 2026-05-05 11:55 | 51.91031 | 2.35123 | 22380 ft | 464 kts | 262° |
| 2026-05-05 11:55 | 51.90698 | 2.29961 | 21652 ft | 458 kts | 264° |
| 2026-05-05 11:55 | 51.90491 | 2.24830 | 21287 ft | 456 kts | 266° |
| 2026-05-05 11:55 | 51.90373 | 2.19717 | 20812 ft | 454 kts | 266° |
| 2026-05-05 11:56 | 51.90304 | 2.14623 | 20348 ft | 451 kts | 268° |
| 2026-05-05 11:56 | 51.90246 | 2.09556 | 19893 ft | 449 kts | 268° |
| 2026-05-05 11:56 | 51.90171 | 2.04514 | 19429 ft | 447 kts | 267° |
| 2026-05-05 11:56 | 51.90071 | 1.99503 | 18972 ft | 444 kts | 266° |
| 2026-05-05 11:57 | 51.89994 | 1.94522 | 18515 ft | 441 kts | 270° |
| 2026-05-05 11:57 | 51.90310 | 1.89616 | 17832 ft | 436 kts | 281° |
| 2026-05-05 11:57 | 51.91139 | 1.84942 | 17458 ft | 432 kts | 290° |
| 2026-05-05 11:57 | 51.92414 | 1.80531 | 16858 ft | 432 kts | 298° |
| 2026-05-05 11:58 | 51.93837 | 1.76257 | 16271 ft | 429 kts | 298° |
| 2026-05-05 11:58 | 51.95245 | 1.72015 | 15677 ft | 426 kts | 298° |
| 2026-05-05 11:58 | 51.96639 | 1.67802 | 15081 ft | 422 kts | 298° |
| 2026-05-05 11:58 | 51.98012 | 1.63629 | 14528 ft | 418 kts | 298° |
| 2026-05-05 11:59 | 51.99371 | 1.59486 | 13948 ft | 414 kts | 298° |
| 2026-05-05 11:59 | 52.00713 | 1.55380 | 13348 ft | 410 kts | 298° |
| 2026-05-05 11:59 | 52.01931 | 1.51300 | 13201 ft | 393 kts | 290° |
| 2026-05-05 11:59 | 52.02497 | 1.47079 | 13108 ft | 376 kts | 274° |
| 2026-05-05 12:00 | 52.02566 | 1.42831 | 12312 ft | 380 kts | 270° |
| 2026-05-05 12:00 | 52.02555 | 1.38445 | 11801 ft | 395 kts | 270° |
| 2026-05-05 12:00 | 52.02508 | 1.33965 | 11290 ft | 397 kts | 269° |
| 2026-05-05 12:00 | 52.02447 | 1.29498 | 10999 ft | 396 kts | 269° |
| 2026-05-05 12:01 | 52.02383 | 1.25038 | 10966 ft | 395 kts | 269° |
| 2026-05-05 12:01 | 52.02325 | 1.20518 | 10971 ft | 395 kts | 269° |
| 2026-05-05 12:01 | 52.02277 | 1.16226 | 10910 ft | 376 kts | 269° |
| 2026-05-05 12:01 | 52.02235 | 1.12088 | 10689 ft | 361 kts | 269° |
| 2026-05-05 12:02 | 52.02197 | 1.07983 | 10044 ft | 361 kts | 269° |
| 2026-05-05 12:02 | 52.02157 | 1.03950 | 9865 ft | 343 kts | 270° |
| 2026-05-05 12:02 | 52.02115 | 1.00219 | 9820 ft | 327 kts | 269° |
| 2026-05-05 12:02 | 52.02077 | 0.97069 | 9809 ft | 312 kts | 270° |
| 2026-05-05 12:03 | 52.02036 | 0.93635 | 9813 ft | 296 kts | 269° |
| 2026-05-05 12:03 | 52.01997 | 0.90346 | 9622 ft | 288 kts | 269° |
| 2026-05-05 12:03 | 52.01961 | 0.87153 | 9275 ft | 286 kts | 270° |
| 2026-05-05 12:03 | 52.01917 | 0.83901 | 8981 ft | 281 kts | 270° |
| 2026-05-05 12:04 | 52.01871 | 0.80802 | 8960 ft | 267 kts | 269° |
| 2026-05-05 12:04 | 52.01822 | 0.77869 | 8967 ft | 254 kts | 269° |
| 2026-05-05 12:04 | 52.01769 | 0.75018 | 8971 ft | 252 kts | 269° |
| 2026-05-05 12:04 | 52.01717 | 0.72175 | 8971 ft | 252 kts | 269° |
| 2026-05-05 12:05 | 52.01668 | 0.69331 | 8974 ft | 252 kts | 270° |
| 2026-05-05 12:05 | 52.01618 | 0.66491 | 8971 ft | 252 kts | 269° |
| 2026-05-05 12:05 | 52.01570 | 0.63648 | 8971 ft | 252 kts | 269° |
| 2026-05-05 12:05 | 52.01528 | 0.60808 | 8974 ft | 252 kts | 269° |
| 2026-05-05 12:06 | 52.01487 | 0.57978 | 8758 ft | 250 kts | 270° |
| 2026-05-05 12:06 | 52.01437 | 0.55160 | 8434 ft | 249 kts | 269° |
| 2026-05-05 12:06 | 52.01385 | 0.52354 | 8118 ft | 248 kts | 269° |
| 2026-05-05 12:06 | 52.01331 | 0.49574 | 7969 ft | 246 kts | 270° |
| 2026-05-05 12:07 | 52.01269 | 0.46783 | 7972 ft | 249 kts | 269° |
| 2026-05-05 12:07 | 52.01214 | 0.43970 | 7973 ft | 249 kts | 269° |
| 2026-05-05 12:07 | 52.01165 | 0.41159 | 7976 ft | 249 kts | 269° |
| 2026-05-05 12:07 | 52.01119 | 0.38357 | 7785 ft | 248 kts | 269° |
| 2026-05-05 12:08 | 52.01070 | 0.35570 | 7473 ft | 247 kts | 269° |
| 2026-05-05 12:08 | 52.01026 | 0.32794 | 7164 ft | 246 kts | 269° |
| 2026-05-05 12:08 | 52.00980 | 0.30024 | 6845 ft | 245 kts | 269° |
| 2026-05-05 12:08 | 52.00936 | 0.27263 | 6524 ft | 244 kts | 269° |
| 2026-05-05 12:09 | 52.00837 | 0.24513 | 6190 ft | 244 kts | 258° |
| 2026-05-05 12:09 | 52.00108 | 0.22088 | 6003 ft | 241 kts | 231° |
| 2026-05-05 12:09 | 51.98994 | 0.20006 | 6015 ft | 248 kts | 227° |
| 2026-05-05 12:09 | 51.97819 | 0.17969 | 6001 ft | 246 kts | 226° |
| 2026-05-05 12:10 | 51.96624 | 0.15974 | 6005 ft | 247 kts | 223° |
| 2026-05-05 12:10 | 51.95363 | 0.14107 | 5999 ft | 245 kts | 221° |
| 2026-05-05 12:10 | 51.94087 | 0.12266 | 6008 ft | 247 kts | 221° |
| 2026-05-05 12:10 | 51.92808 | 0.10424 | 5847 ft | 245 kts | 221° |
| 2026-05-05 12:11 | 51.91534 | 0.08582 | 5486 ft | 245 kts | 221° |
| 2026-05-05 12:11 | 51.90265 | 0.06730 | 5152 ft | 245 kts | 221° |
| 2026-05-05 12:11 | 51.89008 | 0.04882 | 4834 ft | 244 kts | 221° |
| 2026-05-05 12:11 | 51.87760 | 0.03036 | 4516 ft | 242 kts | 221° |
| 2026-05-05 12:12 | 51.86514 | 0.01206 | 4173 ft | 242 kts | 221° |
| 2026-05-05 12:12 | 51.85264 | -0.00620 | 3851 ft | 242 kts | 221° |
| 2026-05-05 12:12 | 51.84009 | -0.02423 | 3486 ft | 242 kts | 221° |
| 2026-05-05 12:12 | 51.82691 | -0.04098 | 3177 ft | 240 kts | 206° |
| 2026-05-05 12:13 | 51.81116 | -0.04629 | 3028 ft | 226 kts | 171° |
| 2026-05-05 12:13 | 51.79755 | -0.03744 | 3045 ft | 202 kts | 139° |
| 2026-05-05 12:13 | 51.78735 | -0.02273 | 3037 ft | 191 kts | 133° |
| 2026-05-05 12:13 | 51.77810 | -0.00774 | 2726 ft | 187 kts | 131° |
| 2026-05-05 12:14 | 51.76896 | 0.00728 | 2373 ft | 187 kts | 131° |
| 2026-05-05 12:14 | 51.75985 | 0.02218 | 2062 ft | 185 kts | 125° |
| 2026-05-05 12:14 | 51.75603 | 0.04056 | 2005 ft | 174 kts | 78° |
| 2026-05-05 12:14 | 51.76266 | 0.05597 | 2035 ft | 173 kts | 32° |
| 2026-05-05 12:15 | 51.77281 | 0.06659 | 2013 ft | 174 kts | 42° |
| 2026-05-05 12:15 | 51.78156 | 0.07992 | 2011 ft | 172 kts | 43° |
| 2026-05-05 12:15 | 51.79010 | 0.09283 | 2004 ft | 163 kts | 42° |
| 2026-05-05 12:15 | 51.79827 | 0.10508 | 2022 ft | 157 kts | 42° |
| 2026-05-05 12:16 | 51.80636 | 0.11716 | 2008 ft | 155 kts | 43° |
| 2026-05-05 12:16 | 51.81391 | 0.12844 | 1966 ft | 145 kts | 42° |
| 2026-05-05 12:16 | 51.82118 | 0.13930 | 1834 ft | 141 kts | 42° |
| 2026-05-05 12:16 | 51.82836 | 0.15002 | 1678 ft | 139 kts | 42° |
| 2026-05-05 12:17 | 51.83551 | 0.16071 | 1494 ft | 139 kts | 42° |
| 2026-05-05 12:17 | 51.84262 | 0.17135 | 1308 ft | 139 kts | 42° |
| 2026-05-05 12:17 | 51.84975 | 0.18194 | 1113 ft | 138 kts | 41° |
| 2026-05-05 12:17 | 51.85681 | 0.19252 | 900 ft | 139 kts | 42° |
| 2026-05-05 12:18 | 51.86385 | 0.20311 | 728 ft | 140 kts | 42° |
| 2026-05-05 12:18 | 51.87101 | 0.21383 | 532 ft | 140 kts | 41° |
| 2026-05-05 12:18 | 51.87813 | 0.22450 | 366 ft | 139 kts | 41° |
| 2026-05-05 12:18 | 51.88455 | 0.23412 | 337 ft | 106 kts | 43° |
| 2026-05-05 12:19 | 51.88869 | 0.24034 | 336 ft | 52 kts | 43° |
| 2026-05-05 12:19 | 51.89026 | 0.24299 | 338 ft | 28 kts | 54° |
| 2026-05-05 12:19 | 51.89105 | 0.24556 | 337 ft | 23 kts | 68° |
| 2026-05-05 12:19 | 51.89155 | 0.24757 | 353 ft | 11 kts | 66° |
| 2026-05-05 12:20 | 51.89162 | 0.24859 | 342 ft | 8 kts | 106° |
| 2026-05-05 12:20 | 51.89153 | 0.24930 | 344 ft | 5 kts | 94° |
| 2026-05-05 12:20 | 51.89165 | 0.24962 | 347 ft | 4 kts | 49° |
| 2026-05-05 12:20 | 51.89197 | 0.25013 | 346 ft | 9 kts | 45° |
| 2026-05-05 12:21 | 51.89235 | 0.25102 | 353 ft | 9 kts | 65° |
| 2026-05-05 12:21 | 51.89231 | 0.25179 | 352 ft | 7 kts | 121° |
| 2026-05-05 12:21 | 51.89194 | 0.25249 | 353 ft | 9 kts | 133° |
| 2026-05-05 12:21 | 51.89148 | 0.25329 | 352 ft | 10 kts | 133° |
| 2026-05-05 12:22 | 51.89103 | 0.25407 | 334 ft | 4 kts | 133° |
| 2026-05-05 12:22 | 51.89096 | 0.25435 | 337 ft | 2 kts | 95° |
| 2026-05-05 12:22 | 51.89100 | 0.25454 | 337 ft | 2 kts | 69° |
| 2026-05-05 12:22 | 51.89111 | 0.25483 | 339 ft | 4 kts | 59° |
| 2026-05-05 12:23 | 51.89121 | 0.25512 | 349 ft | 2 kts | 58° |
| 2026-05-05 12:23 | 51.89122 | 0.25513 | 352 ft | 0 kts | 58° |